Time;durP1;ratioP1;P1;durP2;ratioP2;P2;SDS_P1;SDS_P2;PMS_P1;PMS_P2;Temp;Humidity;BMP_temperature;BMP_pressure;BME280_temperature;BME280_humidity;BME280_pressure;Samples;Min_cycle;Max_cycle;Signal;HPM_P1;HPM_P2
2022/03/21 00:00:29;;;;;;;29.03;12.53;;;;;;;-3.11;100.00;101942.55;1725754;83;21034;-80
2022/03/21 00:02:57;;;;;;;27.03;13.03;;;;;;;-3.13;100.00;101944.36;1725348;83;21076;-80
2022/03/21 00:05:25;;;;;;;28.67;12.73;;;;;;;-3.13;100.00;101939.08;1725511;83;21070;-79
2022/03/21 00:07:53;;;;;;;28.50;12.37;;;;;;;-3.12;100.00;101933.31;1773431;81;21017;-80
2022/03/21 00:10:22;;;;;;;34.20;14.27;;;;;;;-3.14;100.00;101930.70;1773189;81;21044;-79
2022/03/21 00:12:51;;;;;;;38.90;16.80;;;;;;;-3.13;100.00;101928.95;1773225;81;21041;-80
2022/03/21 00:15:20;;;;;;;44.90;19.43;;;;;;;-3.11;100.00;101929.31;1773441;81;21002;-80
2022/03/21 00:17:48;;;;;;;36.60;17.37;;;;;;;-3.11;100.00;101925.34;1773248;81;21033;-80
2022/03/21 00:20:16;;;;;;;35.87;16.43;;;;;;;-3.12;100.00;101926.23;1773472;81;21033;-81
2022/03/21 00:22:43;;;;;;;33.57;14.77;;;;;;;-3.11;100.00;101922.70;1773097;81;21372;-80
2022/03/21 00:25:10;;;;;;;33.27;16.10;;;;;;;-3.10;100.00;101916.52;1773552;81;21938;-80
2022/03/21 00:27:38;;;;;;;28.67;13.50;;;;;;;-3.11;100.00;101905.50;1773182;81;21030;-80
2022/03/21 00:32:38;;;;;;;25.63;11.13;;;;;;;-3.16;100.00;101907.38;1742596;82;21041;-80
2022/03/21 00:35:09;;;;;;;26.80;11.77;;;;;;;-3.20;100.00;101905.73;1742122;82;21014;-80
2022/03/21 00:37:37;;;;;;;25.00;11.43;;;;;;;-3.22;100.00;101904.90;1742129;82;21053;-80
2022/03/21 00:40:07;;;;;;;23.33;11.90;;;;;;;-3.26;100.00;101896.16;1743281;82;21009;-79
2022/03/21 00:42:37;;;;;;;23.70;11.60;;;;;;;-3.29;100.00;101892.27;1749456;82;21006;-80
2022/03/21 00:45:06;;;;;;;23.90;11.33;;;;;;;-3.31;100.00;101883.50;1749465;82;21095;-80
2022/03/21 00:47:33;;;;;;;23.73;11.53;;;;;;;-3.34;100.00;101884.03;1749434;82;21053;-80
2022/03/21 00:50:07;;;;;;;26.27;11.17;;;;;;;-3.36;100.00;101880.09;1749322;82;21046;-80
2022/03/21 00:52:42;;;;;;;;;;;;;;;-3.36;100.00;101884.52;1752033;82;21054;-80
2022/03/21 00:55:10;;;;;;;21.73;11.53;;;;;;;-3.37;100.00;101886.73;1749757;82;20100;-80
2022/03/21 00:57:40;;;;;;;23.43;11.67;;;;;;;-3.39;100.00;101892.06;1750082;82;21042;-80
2022/03/21 01:00:10;;;;;;;25.33;11.60;;;;;;;-3.42;100.00;101882.01;1750422;82;21015;-81
2022/03/21 01:02:38;;;;;;;22.77;11.00;;;;;;;-3.46;100.00;101890.47;1750026;82;21113;-79
2022/03/21 01:05:07;;;;;;;23.83;11.43;;;;;;;-3.48;100.00;101893.14;1750067;82;21042;-80
2022/03/21 01:07:35;;;;;;;23.53;11.07;;;;;;;-3.49;100.00;101894.07;1747755;82;21053;-80
2022/03/21 01:10:05;;;;;;;21.83;9.70;;;;;;;-3.51;100.00;101891.88;1746146;82;21140;-80
2022/03/21 01:12:34;;;;;;;22.07;9.57;;;;;;;-3.50;100.00;101888.81;1747096;82;21084;-80
2022/03/21 01:15:01;;;;;;;20.97;9.30;;;;;;;-3.50;100.00;101891.45;1746915;82;20993;-80
2022/03/21 01:17:28;;;;;;;20.57;9.63;;;;;;;-3.50;100.00;101886.17;1746342;82;21069;-80
2022/03/21 01:19:56;;;;;;;19.20;9.23;;;;;;;-3.47;100.00;101884.75;1745675;82;21048;-80
2022/03/21 01:22:23;;;;;;;21.27;9.20;;;;;;;-3.47;100.00;101886.96;1746199;82;21113;-80
2022/03/21 01:24:50;;;;;;;22.27;9.97;;;;;;;-3.42;100.00;101886.83;1745919;82;21519;-80
2022/03/21 01:27:17;;;;;;;21.53;9.60;;;;;;;-3.38;100.00;101874.41;1746002;82;21064;-80
2022/03/21 01:29:44;;;;;;;22.90;10.60;;;;;;;-3.34;100.00;101883.56;1765823;81;21498;-79
2022/03/21 01:32:12;;;;;;;22.27;10.20;;;;;;;-3.33;100.00;101885.31;1777051;79;21033;-79
2022/03/21 01:34:39;;;;;;;22.87;10.63;;;;;;;-3.31;100.00;101887.47;1777573;81;21113;-79
2022/03/21 01:37:06;;;;;;;23.53;10.20;;;;;;;-3.27;100.00;101895.73;1777934;81;21021;-79
2022/03/21 01:39:34;;;;;;;24.70;11.17;;;;;;;-3.24;100.00;101892.13;1777465;81;21096;-79
2022/03/21 01:42:00;;;;;;;22.43;10.87;;;;;;;-3.19;100.00;101896.00;1782198;81;21026;-80
2022/03/21 01:44:27;;;;;;;24.53;10.20;;;;;;;-3.17;100.00;101892.43;1782716;81;21018;-79
2022/03/21 01:46:54;;;;;;;19.73;9.03;;;;;;;-3.13;100.00;101887.47;1782228;81;21022;-80
2022/03/21 01:49:21;;;;;;;22.20;9.10;;;;;;;-3.09;100.00;101885.15;1781665;81;21041;-80
2022/03/21 01:51:47;;;;;;;21.37;9.27;;;;;;;-3.04;100.00;101870.95;1781651;81;21047;-79
2022/03/21 01:57:01;;;;;;;17.83;8.60;;;;;;;-3.04;100.00;101869.17;1772789;81;21078;-80
2022/03/21 01:59:28;;;;;;;19.80;8.77;;;;;;;-3.06;100.00;101865.23;1772791;81;21457;-78
2022/03/21 02:01:56;;;;;;;22.03;9.20;;;;;;;-3.07;100.00;101868.77;1772640;81;21140;-79
2022/03/21 02:04:22;;;;;;;20.70;8.83;;;;;;;-3.09;100.00;101863.98;1772338;81;20965;-81
2022/03/21 02:06:51;;;;;;;19.77;8.53;;;;;;;-3.11;100.00;101859.64;1772857;81;21026;-80
2022/03/21 02:09:17;;;;;;;19.27;9.00;;;;;;;-3.14;100.00;101862.36;1772741;81;21054;-80
2022/03/21 02:11:45;;;;;;;18.13;9.27;;;;;;;-3.19;100.00;101862.92;1772825;81;21003;-79
2022/03/21 02:14:11;;;;;;;22.70;10.23;;;;;;;-3.25;100.00;101845.44;1738984;82;21070;-79
2022/03/21 02:16:39;;;;;;;19.90;8.93;;;;;;;-3.28;100.00;101850.80;1772952;79;21027;-80
2022/03/21 02:22:45;;;;;;;18.77;9.13;;;;;;;-3.34;100.00;101837.73;1647173;87;21089;-80
2022/03/21 02:25:29;;;;;;;19.27;9.50;;;;;;;-3.35;100.00;101832.88;1647073;86;20997;-78
2022/03/21 02:28:03;;;;;;;19.77;9.30;;;;;;;-3.36;100.00;101843.06;1647257;87;21096;-78
2022/03/21 02:30:33;;;;;;;22.53;10.57;;;;;;;-3.38;100.00;101839.59;1646869;87;21053;-79
2022/03/21 02:33:02;;;;;;;22.87;10.80;;;;;;;-3.41;100.00;101834.83;1647086;87;21044;-80
2022/03/21 02:35:30;;;;;;;19.80;9.67;;;;;;;-3.40;100.00;101836.08;1646970;87;21546;-79
2022/03/21 02:37:57;;;;;;;22.17;10.30;;;;;;;-3.37;100.00;101832.05;1647314;87;21550;-80
2022/03/21 02:40:25;;;;;;;25.43;11.77;;;;;;;-3.33;100.00;101834.16;1646818;87;21029;-81
2022/03/21 02:42:52;;;;;;;28.03;13.03;;;;;;;-3.30;100.00;101823.52;1646995;87;21622;-80
2022/03/21 02:45:19;;;;;;;33.20;14.30;;;;;;;-3.23;100.00;101826.87;1647132;87;21079;-80
2022/03/21 02:47:47;;;;;;;33.33;14.90;;;;;;;-3.19;100.00;101820.59;1615029;89;21102;-79
2022/03/21 02:50:16;;;;;;;31.23;13.83;;;;;;;-3.14;100.00;101825.31;1588710;90;21110;-81
2022/03/21 02:52:46;;;;;;;32.50;14.53;;;;;;;-3.08;100.00;101821.17;1615088;89;21093;-80
2022/03/21 02:55:13;;;;;;;31.10;14.07;;;;;;;-3.03;100.00;101809.15;1614144;88;21109;-79
2022/03/21 02:57:40;;;;;;;29.10;13.87;;;;;;;-2.99;100.00;101810.80;1606337;89;21071;-79
2022/03/21 03:00:09;;;;;;;27.83;13.83;;;;;;;-2.93;100.00;101809.33;1606438;89;21098;-80
2022/03/21 03:02:35;;;;;;;26.77;12.83;;;;;;;-2.90;100.00;101809.25;1606420;88;21591;-80
2022/03/21 03:05:02;;;;;;;24.27;11.70;;;;;;;-2.90;100.00;101807.47;1606665;89;21041;-79
2022/03/21 03:07:30;;;;;;;26.20;12.17;;;;;;;-2.91;100.00;101819.41;1604186;89;21094;-80
2022/03/21 03:09:58;;;;;;;25.87;11.90;;;;;;;-2.94;100.00;101803.61;1602351;90;21074;-79
2022/03/21 03:12:27;;;;;;;25.87;12.00;;;;;;;-2.96;100.00;101802.78;1602425;90;21094;-79
2022/03/21 03:14:54;;;;;;;25.90;11.97;;;;;;;-2.98;100.00;101801.50;1602394;90;21611;-81
2022/03/21 03:17:22;;;;;;;23.17;11.80;;;;;;;-2.96;100.00;101798.81;1602275;90;21568;-79
2022/03/21 03:19:49;;;;;;;25.10;11.83;;;;;;;-2.90;100.00;101798.20;1710892;84;21031;-80
2022/03/21 03:22:17;;;;;;;27.00;12.93;;;;;;;-2.82;100.00;101791.36;1694981;85;20995;-79
2022/03/21 03:24:44;;;;;;;26.60;12.03;;;;;;;-2.75;100.00;101788.95;1742251;82;21085;-79
2022/03/21 03:27:11;;;;;;;28.53;13.00;;;;;;;-2.67;100.00;101788.29;1742676;82;21031;-79
2022/03/21 03:29:38;;;;;;;27.20;12.93;;;;;;;-2.61;100.00;101786.38;1742502;82;21019;-79
2022/03/21 03:32:05;;;;;;;28.70;12.50;;;;;;;-2.57;100.00;101780.08;1742300;82;21030;-78
2022/03/21 03:34:32;;;;;;;23.53;11.87;;;;;;;-2.54;100.00;101776.02;1741711;82;20999;-79
2022/03/21 03:36:59;;;;;;;24.70;12.17;;;;;;;-2.51;100.00;101781.23;1691127;82;20987;-80
2022/03/21 03:39:26;;;;;;;22.53;11.03;;;;;;;-2.49;100.00;101778.94;1741543;82;21022;-80
2022/03/21 03:41:53;;;;;;;20.50;10.20;;;;;;;-2.45;100.00;101769.59;1734663;82;21055;-79
2022/03/21 03:44:22;;;;;;;22.27;10.03;;;;;;;-2.40;100.00;101774.30;1733574;83;21025;-79
2022/03/21 03:46:49;;;;;;;21.20;9.53;;;;;;;-2.35;100.00;101769.73;1733343;83;21059;-79
2022/03/21 03:49:16;;;;;;;23.17;10.43;;;;;;;-2.30;100.00;101775.30;1733019;83;21106;-80
2022/03/21 03:51:43;;;;;;;26.07;11.53;;;;;;;-2.26;100.00;101772.56;1733418;82;21031;-79
2022/03/21 03:54:10;;;;;;;26.33;12.90;;;;;;;-2.24;100.00;101764.97;1733635;83;21008;-80
2022/03/21 03:56:37;;;;;;;24.80;12.17;;;;;;;-2.21;100.00;101767.53;1736545;81;21086;-79
2022/03/21 03:59:04;;;;;;;24.40;10.90;;;;;;;-2.18;100.00;101762.14;1772360;81;21010;-80
2022/03/21 04:01:32;;;;;;;20.00;9.50;;;;;;;-2.15;100.00;101763.35;1772246;81;21046;-79
2022/03/21 04:04:00;;;;;;;21.07;9.30;;;;;;;-2.12;100.00;101759.75;1772757;81;20994;-79
2022/03/21 04:06:27;;;;;;;20.43;10.30;;;;;;;-2.11;100.00;101760.15;1770919;81;21046;-79
2022/03/21 04:08:54;;;;;;;20.37;9.63;;;;;;;-2.11;100.00;101755.73;1762613;81;21038;-79
2022/03/21 04:11:21;;;;;;;27.03;12.37;;;;;;;-2.10;100.00;101757.92;1762888;81;21073;-79
2022/03/21 04:13:49;;;;;;;30.27;12.83;;;;;;;-2.08;100.00;101753.44;1762539;81;21066;-79
2022/03/21 04:16:17;;;;;;;24.77;11.10;;;;;;;-2.07;100.00;101753.86;1762505;81;21073;-79
2022/03/21 04:18:44;;;;;;;21.30;9.73;;;;;;;-2.04;100.00;101755.53;1762718;81;20967;-78
2022/03/21 04:21:11;;;;;;;21.97;11.33;;;;;;;-1.99;100.00;101765.07;1762638;81;20999;-80
2022/03/21 04:23:38;;;;;;;25.00;13.70;;;;;;;-1.94;100.00;101768.91;1762407;81;21046;-80
2022/03/21 04:26:05;;;;;;;26.97;14.00;;;;;;;-1.88;100.00;101766.52;1762395;81;21084;-80
2022/03/21 04:28:32;;;;;;;27.77;14.60;;;;;;;-1.82;100.00;101774.30;1762360;81;21038;-78
2022/03/21 04:30:59;;;;;;;34.17;16.30;;;;;;;-1.76;100.00;101771.43;1762751;81;21042;-80
2022/03/21 04:33:26;;;;;;;27.77;14.63;;;;;;;-1.70;100.00;101768.56;1762810;81;20998;-79
2022/03/21 04:35:54;;;;;;;25.43;13.13;;;;;;;-1.63;100.00;101766.15;1762553;81;21049;-79
2022/03/21 04:38:21;;;;;;;25.47;12.73;;;;;;;-1.55;100.00;101761.91;1762662;81;21029;-80
2022/03/21 04:40:50;;;;;;;23.47;11.60;;;;;;;-1.45;100.00;101769.08;1776938;80;21436;-80
2022/03/21 04:43:18;;;;;;;23.03;11.27;;;;;;;-1.37;100.00;101764.39;1795803;80;21050;-79
2022/03/21 04:45:46;;;;;;;22.33;11.67;;;;;;;-1.26;100.00;101761.37;1795929;80;21023;-79
2022/03/21 04:48:14;;;;;;;25.33;12.03;;;;;;;-1.16;100.00;101762.32;1795670;80;21045;-79
2022/03/21 04:50:41;;;;;;;25.43;12.57;;;;;;;-1.08;100.00;101756.77;1796018;80;21077;-79
2022/03/21 04:53:10;;;;;;;28.33;12.40;;;;;;;-0.98;100.00;101762.13;1795695;80;21025;-77
2022/03/21 04:55:39;;;;;;;24.70;11.70;;;;;;;-0.88;100.00;101756.52;1795827;79;21069;-79
2022/03/21 04:58:06;;;;;;;22.97;11.50;;;;;;;-0.76;100.00;101758.72;1795738;80;21010;-80
2022/03/21 05:00:35;;;;;;;23.13;12.10;;;;;;;-0.63;100.00;101759.98;1795586;80;21041;-80
2022/03/21 05:03:05;;;;;;;25.57;12.57;;;;;;;-0.50;100.00;101766.17;1795886;80;20954;-80
2022/03/21 05:05:30;;;;;;;21.90;11.70;;;;;;;-0.40;100.00;101767.09;1795520;80;21009;-79
2022/03/21 05:07:58;;;;;;;23.77;12.17;;;;;;;-0.28;100.00;101763.58;1770132;80;21021;-79
2022/03/21 05:10:24;;;;;;;24.10;13.00;;;;;;;-0.16;100.00;101761.78;1762704;81;21448;-79
2022/03/21 05:12:51;;;;;;;24.20;12.33;;;;;;;-0.03;100.00;101757.69;1762678;81;21029;-80
2022/03/21 05:15:19;;;;;;;23.93;12.73;;;;;;;0.09;100.00;101758.11;1762500;81;21070;-80
2022/03/21 05:17:46;;;;;;;27.83;14.63;;;;;;;0.21;100.00;101762.09;1761577;81;21057;-79
2022/03/21 05:20:17;;;;;;;34.00;18.20;;;;;;;0.32;100.00;101755.41;1761821;81;21045;-80
2022/03/21 05:31:05;;;;;;;27.47;16.40;;;;;;;0.77;100.00;101750.02;1762542;81;21049;-79
2022/03/21 05:36:19;;;;;;;27.80;13.67;;;;;;;0.90;100.00;101753.41;1762696;81;20991;-79
2022/03/21 05:38:48;;;;;;;26.30;14.07;;;;;;;0.95;100.00;101744.73;1762269;81;21077;-80
2022/03/21 05:41:15;;;;;;;28.63;14.53;;;;;;;1.04;100.00;101759.44;1762520;81;21021;-80
2022/03/21 05:43:42;;;;;;;33.80;19.70;;;;;;;1.08;100.00;101753.06;1762403;81;21018;-80
2022/03/21 05:46:10;;;;;;;34.83;18.60;;;;;;;1.13;100.00;101750.17;1762311;81;21009;-80
2022/03/21 05:48:54;;;;;;;38.27;22.43;;;;;;;1.21;100.00;101747.19;1762603;81;20982;-79
2022/03/21 05:51:27;;;;;;;31.03;17.97;;;;;;;1.30;100.00;101741.44;1762251;81;21535;-80
2022/03/21 05:53:57;;;;;;;41.93;29.07;;;;;;;1.45;100.00;101731.41;1739999;81;21057;-80
2022/03/21 05:56:25;;;;;;;30.07;17.90;;;;;;;1.59;100.00;101741.89;1739953;81;21045;-81
2022/03/21 05:58:53;;;;;;;30.20;15.57;;;;;;;1.75;100.00;101742.04;1740515;82;21064;-80
2022/03/21 06:01:24;;;;;;;27.30;15.00;;;;;;;1.94;100.00;101739.36;1740166;81;21034;-80
2022/03/21 06:03:55;;;;;;;50.00;29.67;;;;;;;2.13;100.00;101734.86;1740845;80;21112;-80
2022/03/21 06:06:22;;;;;;;25.30;15.33;;;;;;;2.34;100.00;101737.39;1737439;80;21749;-80
2022/03/21 06:08:50;;;;;;;28.60;14.77;;;;;;;2.55;100.00;101745.69;1713497;82;21095;-77
2022/03/21 06:11:19;;;;;;;25.23;14.67;;;;;;;2.68;100.00;101741.92;1742390;82;21047;-79
2022/03/21 06:13:46;;;;;;;30.60;14.87;;;;;;;2.79;100.00;101745.37;1717666;82;21050;-77
2022/03/21 06:16:15;;;;;;;26.20;14.30;;;;;;;2.92;100.00;101750.48;1740862;82;21015;-78
2022/03/21 06:18:42;;;;;;;28.70;14.47;;;;;;;3.04;100.00;101743.13;1740969;82;20988;-78
2022/03/21 06:21:09;;;;;;;28.33;14.83;;;;;;;3.18;100.00;101746.89;1740308;82;21027;-74
2022/03/21 06:23:37;;;;;;;28.33;14.37;;;;;;;3.31;100.00;101739.08;1740310;82;21054;-71
2022/03/21 06:26:06;;;;;;;36.87;21.10;;;;;;;3.47;100.00;101745.80;1755385;81;21100;-75
2022/03/21 06:28:33;;;;;;;30.27;18.20;;;;;;;3.64;100.00;101746.23;1770182;81;21072;-75
2022/03/21 06:31:00;;;;;;;35.00;19.23;;;;;;;3.84;100.00;101749.13;1770225;81;21073;-76
2022/03/21 06:33:29;;;;;;;29.80;18.07;;;;;;;3.99;100.00;101751.80;1770369;81;21515;-74
2022/03/21 06:35:57;;;;;;;27.60;15.00;;;;;;;4.19;100.00;101747.98;1770563;81;21006;-75
2022/03/21 06:38:24;;;;;;;38.57;22.80;;;;;;;4.37;100.00;101749.22;1753642;81;21611;-73
2022/03/21 06:40:51;;;;;;;32.07;19.83;;;;;;;4.55;100.00;101753.97;1740139;82;21057;-75
2022/03/21 06:43:22;;;;;;;35.90;20.83;;;;;;;4.77;100.00;101751.38;1740542;81;21084;-76
2022/03/21 06:45:52;;;;;;;61.93;32.53;;;;;;;4.97;100.00;101749.69;1740017;82;21549;-76
2022/03/21 06:48:19;;;;;;;41.47;25.67;;;;;;;5.21;100.00;101746.00;1739774;82;20997;-76
2022/03/21 06:50:46;;;;;;;32.27;17.57;;;;;;;5.42;100.00;101742.46;1739745;82;21586;-75
2022/03/21 06:53:16;;;;;;;69.10;39.80;;;;;;;5.55;100.00;101739.86;1757204;81;21105;-76
2022/03/21 06:55:43;;;;;;;27.23;14.10;;;;;;;5.73;100.00;101733.80;1709029;84;21049;-77
2022/03/21 06:58:11;;;;;;;31.47;18.83;;;;;;;5.92;100.00;101740.20;1675110;85;21050;-75
2022/03/21 07:00:41;;;;;;;36.57;22.33;;;;;;;6.06;100.00;101733.47;1645558;87;21557;-76
2022/03/21 07:03:09;;;;;;;49.63;26.47;;;;;;;6.30;100.00;101727.92;1679609;84;21063;-76
2022/03/21 07:05:38;;;;;;;39.77;19.10;;;;;;;6.56;100.00;101735.09;1673692;86;21032;-77
2022/03/21 07:08:05;;;;;;;57.37;32.77;;;;;;;6.75;100.00;101731.18;1675594;84;21101;-77
2022/03/21 07:10:33;;;;;;;56.70;33.77;;;;;;;6.93;100.00;101729.05;1669258;86;21115;-76
2022/03/21 07:13:01;;;;;;;32.60;17.60;;;;;;;7.14;100.00;101718.13;1668573;86;21106;-77
2022/03/21 07:15:29;;;;;;;36.57;20.80;;;;;;;7.31;99.00;101727.72;1668853;86;21133;-77
2022/03/21 07:17:56;;;;;;;49.80;29.90;;;;;;;7.45;98.72;101713.25;1668013;86;21016;-75
2022/03/21 07:20:24;;;;;;;37.20;23.40;;;;;;;7.61;97.17;101718.39;1667689;86;21067;-74
2022/03/21 07:22:52;;;;;;;30.90;18.67;;;;;;;7.74;95.66;101718.39;1667292;86;21150;-75
2022/03/21 07:25:19;;;;;;;32.50;17.83;;;;;;;7.91;95.17;101719.83;1667010;86;21063;-75
2022/03/21 07:27:46;;;;;;;40.47;27.63;;;;;;;8.13;94.21;101721.32;1667735;86;21517;-75
2022/03/21 07:30:14;;;;;;;229.50;88.13;;;;;;;8.20;92.46;101723.08;1668349;86;21636;-75
2022/03/21 07:32:42;;;;;;;171.37;62.83;;;;;;;8.07;88.74;101721.76;1668161;86;21067;-76
2022/03/21 07:35:09;;;;;;;400.43;144.40;;;;;;;7.88;89.96;101721.39;1668172;86;21575;-76
2022/03/21 07:37:41;;;;;;;230.10;78.73;;;;;;;7.92;90.79;101719.72;1669291;86;21087;-75
2022/03/21 07:40:11;;;;;;;406.53;144.93;;;;;;;8.12;91.25;101720.94;1673955;84;21046;-75
2022/03/21 07:42:42;;;;;;;191.27;84.53;;;;;;;8.32;90.82;101711.37;1674805;86;21488;-76
2022/03/21 07:47:55;;;;;;;70.97;44.20;;;;;;;8.68;91.34;101708.73;1677688;85;21079;-68
2022/03/21 07:50:23;;;;;;;49.33;20.80;;;;;;;9.02;91.01;101700.70;1671959;84;21106;-67
2022/03/21 07:52:54;;;;;;;32.30;18.47;;;;;;;9.21;87.51;101696.08;1704329;84;21049;-67
2022/03/21 07:55:22;;;;;;;34.53;15.07;;;;;;;9.25;85.50;101701.59;1750339;82;21035;-67
2022/03/21 07:57:50;;;;;;;29.90;16.13;;;;;;;9.30;84.11;101698.04;1755728;81;21605;-69
2022/03/21 08:00:17;;;;;;;36.70;14.97;;;;;;;9.31;83.30;101699.73;1759325;81;21047;-68
2022/03/21 08:02:45;;;;;;;28.60;16.40;;;;;;;9.42;83.38;101697.06;1759435;81;21062;-67
2022/03/21 08:05:15;;;;;;;26.33;14.10;;;;;;;9.50;83.43;101699.98;1759547;81;21105;-70
2022/03/21 08:07:44;;;;;;;26.67;14.87;;;;;;;9.71;83.10;101695.69;1759639;80;21041;-67
2022/03/21 08:10:11;;;;;;;30.02;16.23;;;;;;;9.78;82.02;101696.91;1759201;80;21081;-68
2022/03/21 08:12:42;;;;;;;58.73;18.27;;;;;;;9.88;82.98;101697.37;1759992;81;21022;-68
2022/03/21 08:15:12;;;;;;;24.63;13.05;;;;;;;10.10;82.52;101689.33;1759734;81;21094;-66
2022/03/21 08:17:57;;;;;;;24.57;12.63;;;;;;;10.26;82.25;101686.55;1760012;81;21021;-67
2022/03/21 08:20:33;;;;;;;24.80;12.40;;;;;;;10.33;79.80;101690.14;1770610;81;21115;-69
2022/03/21 08:23:06;;;;;;;25.27;12.30;;;;;;;10.45;80.86;101683.70;1770794;80;21033;-69
2022/03/21 08:25:36;;;;;;;26.62;12.78;;;;;;;10.66;80.03;101678.78;1738671;82;21064;-67
2022/03/21 08:28:05;;;;;;;30.25;13.75;;;;;;;10.81;79.18;101671.55;1739463;82;21538;-75
2022/03/21 08:30:34;;;;;;;28.87;12.28;;;;;;;10.97;78.20;101668.88;1740182;82;21053;-73
2022/03/21 08:33:02;;;;;;;28.98;13.03;;;;;;;11.07;75.84;101658.12;1740531;82;21013;-77
2022/03/21 08:35:32;;;;;;;22.40;11.60;;;;;;;10.93;75.10;101665.58;1739470;82;21049;-72
2022/03/21 08:38:01;;;;;;;36.45;13.22;;;;;;;10.93;75.61;101652.55;1739815;82;21037;-71
2022/03/21 08:40:29;;;;;;;21.97;11.12;;;;;;;11.06;76.74;101646.91;1737473;82;21014;-73
2022/03/21 08:42:56;;;;;;;31.45;10.32;;;;;;;11.37;75.53;101649.97;1719503;83;21069;-75
2022/03/21 08:45:23;;;;;;;22.48;8.98;;;;;;;11.55;73.49;101653.38;1721149;83;21085;-77
2022/03/21 08:47:51;;;;;;;21.82;9.60;;;;;;;11.66;71.23;101653.26;1719825;83;21035;-74
2022/03/21 08:50:18;;;;;;;19.57;8.58;;;;;;;11.82;70.17;101650.52;1721421;83;21591;-76
2022/03/21 08:52:46;;;;;;;20.72;10.10;;;;;;;11.97;69.48;101646.45;1719691;83;21552;-75
2022/03/21 08:55:15;;;;;;;23.35;9.60;;;;;;;12.15;67.10;101638.47;1722567;83;21010;-79
2022/03/21 08:57:44;;;;;;;16.90;8.75;;;;;;;12.29;66.13;101638.54;1719239;82;21094;-67
2022/03/21 09:00:13;;;;;;;25.43;8.05;;;;;;;12.48;65.01;101637.64;1717579;83;21081;-67
2022/03/21 09:02:41;;;;;;;23.73;6.97;;;;;;;12.68;62.59;101625.77;1717055;83;21077;-66
2022/03/21 09:05:12;;;;;;;16.35;6.62;;;;;;;12.72;61.24;101627.18;1718060;83;21046;-67
2022/03/21 09:07:40;;;;;;;19.35;6.25;;;;;;;12.84;62.31;101629.74;1695823;83;21171;-68
2022/03/21 09:10:12;;;;;;;15.10;6.80;;;;;;;12.98;60.53;101624.31;1686420;85;21135;-67
2022/03/21 09:12:39;;;;;;;17.37;7.67;;;;;;;13.18;61.40;101625.12;1686681;85;21119;-67
2022/03/21 09:15:06;;;;;;;28.38;7.53;;;;;;;13.40;60.49;101615.73;1687522;84;21208;-67
2022/03/21 09:17:38;;;;;;;21.02;7.78;;;;;;;13.61;59.61;101611.41;1687302;85;21123;-67
2022/03/21 09:20:06;;;;;;;18.48;6.92;;;;;;;13.77;58.18;101606.14;1686319;85;21068;-66
2022/03/21 09:22:35;;;;;;;32.08;11.22;;;;;;;13.94;58.31;101609.05;1729839;82;21490;-66
2022/03/21 09:25:02;;;;;;;20.55;7.78;;;;;;;14.12;57.52;101612.61;1756741;81;21089;-67
2022/03/21 09:35:47;;;;;;;22.42;7.87;;;;;;;14.39;52.25;101593.95;1764365;81;21506;-68
2022/03/21 09:38:17;;;;;;;20.30;8.50;;;;;;;14.22;49.79;101597.06;1757026;82;21069;-68
2022/03/21 09:40:45;;;;;;;27.27;12.68;;;;;;;14.31;50.76;101589.83;1771096;80;21057;-67
2022/03/21 09:43:12;;;;;;;38.20;9.90;;;;;;;14.65;49.34;101586.87;1791337;80;21523;-69
2022/03/21 09:45:39;;;;;;;29.27;6.62;;;;;;;14.65;49.34;101586.87;1791833;80;20974;-68
2022/03/21 09:50:42;;;;;;;36.33;15.55;;;;;;;14.90;47.60;101576.45;1687668;84;21088;-75
2022/03/21 09:53:14;;;;;;;39.27;7.95;;;;;;;14.90;47.60;101576.45;1687578;85;21013;-77
2022/03/21 09:55:42;;;;;;;35.90;6.83;;;;;;;14.96;47.23;101574.46;1687192;85;21037;-67
2022/03/21 09:58:10;;;;;;;14.80;5.25;;;;;;;15.03;47.41;101576.52;1708756;83;21085;-68
2022/03/21 10:00:40;;;;;;;14.38;5.15;;;;;;;15.01;46.58;101572.59;1725560;83;21534;-68
2022/03/21 10:03:07;;;;;;;12.68;4.87;;;;;;;14.95;47.51;101571.89;1725579;83;21060;-67
2022/03/21 10:05:46;;;;;;;17.23;6.40;;;;;;;14.95;47.20;101558.28;1724785;83;21120;-69
2022/03/21 10:08:21;;;;;;;32.63;6.78;;;;;;;15.10;47.46;101558.02;1670715;86;21013;-68
2022/03/21 10:11:02;;;;;;;15.43;5.10;;;;;;;15.27;46.01;101563.00;1670344;86;21050;-67
2022/03/21 10:13:35;;;;;;;18.57;4.97;;;;;;;15.33;45.98;101554.19;1670449;86;21575;-69
2022/03/21 10:16:16;;;;;;;74.40;15.75;;;;;;;15.49;45.98;101543.84;1634683;87;21538;-68
2022/03/21 10:18:57;;;;;;;23.12;7.97;;;;;;;15.55;45.67;101543.16;1635721;87;21041;-67
2022/03/21 10:21:28;;;;;;;26.23;15.55;;;;;;;15.59;45.33;101540.09;1636651;87;21464;-67
2022/03/21 10:24:07;;;;;;;22.35;6.22;;;;;;;15.55;45.58;101538.22;1636443;87;21478;-66
2022/03/21 10:26:43;;;;;;;22.45;10.40;;;;;;;15.57;45.41;101526.63;1636012;87;21591;-69
2022/03/21 10:29:11;;;;;;;33.90;12.33;;;;;;;15.65;45.82;101529.88;1636593;87;21191;-69
2022/03/21 10:31:50;;;;;;;26.73;11.53;;;;;;;15.72;46.21;101526.81;1641469;86;21143;-68
2022/03/21 10:34:20;;;;;;;30.90;7.78;;;;;;;15.82;46.35;101523.97;1642717;87;21067;-71
2022/03/21 10:37:04;;;;;;;23.38;6.60;;;;;;;15.76;45.32;101521.42;1642985;87;21110;-70
2022/03/21 10:39:36;;;;;;;16.50;4.33;;;;;;;15.60;45.26;101518.62;1643555;87;21627;-68
2022/03/21 10:42:05;;;;;;;22.35;7.12;;;;;;;15.48;45.40;101505.31;1613298;87;21105;-68
2022/03/21 10:44:34;;;;;;;24.02;6.55;;;;;;;15.22;45.60;101510.88;1609709;89;21621;-67
2022/03/21 10:47:05;;;;;;;17.92;9.55;;;;;;;15.13;46.72;101507.27;1621389;87;21876;-68
2022/03/21 10:49:43;;;;;;;20.92;6.62;;;;;;;15.28;47.41;101496.59;1615766;89;21078;-68
2022/03/21 10:52:19;;;;;;;30.88;5.35;;;;;;;15.54;47.77;101501.06;1615881;89;21573;-67
2022/03/21 10:54:50;;;;;;;14.23;4.92;;;;;;;15.65;45.86;101488.97;1616456;87;21086;-67
2022/03/21 10:57:36;;;;;;;22.90;7.05;;;;;;;15.49;46.63;101492.53;1616877;87;21134;-68
2022/03/21 11:00:24;;;;;;;21.17;8.03;;;;;;;15.59;47.35;101486.94;1580549;91;21584;-67
2022/03/21 11:03:06;;;;;;;19.50;8.55;;;;;;;15.84;47.55;101482.38;1581947;91;21094;-70
2022/03/21 11:05:38;;;;;;;37.58;12.25;;;;;;;16.04;47.44;101472.83;1590520;90;21090;-68
2022/03/21 11:08:09;;;;;;;26.45;8.15;;;;;;;16.27;47.81;101466.14;1566976;91;21085;-67
2022/03/21 11:10:37;;;;;;;11.60;6.60;;;;;;;16.40;47.10;101453.30;1549211;92;21108;-68
2022/03/21 11:13:07;;;;;;;19.90;10.00;;;;;;;16.47;47.20;101447.48;1540511;92;21093;-66
2022/03/21 11:15:35;;;;;;;13.13;5.47;;;;;;;16.49;46.86;101440.48;1542789;93;21180;-68
2022/03/21 11:18:05;;;;;;;23.38;7.78;;;;;;;16.37;46.55;101447.34;1543199;93;21575;-67
2022/03/21 11:20:32;;;;;;;40.85;28.90;;;;;;;16.26;47.53;101439.02;1544034;93;21061;-67
2022/03/21 11:23:00;;;;;;;23.95;8.88;;;;;;;16.28;47.76;101449.24;1545649;93;21109;-68
2022/03/21 11:25:36;;;;;;;14.40;5.83;;;;;;;16.31;47.86;101440.19;1545708;93;21081;-69
2022/03/21 11:28:41;;;;;;;11.90;5.08;;;;;;;16.32;47.88;101441.03;1543570;93;21615;-68
2022/03/21 11:31:41;;;;;;;14.35;4.00;;;;;;;16.36;48.28;101439.68;1550888;91;21609;-68
2022/03/21 11:34:13;;;;;;;29.57;5.33;;;;;;;16.44;48.15;101432.81;1508196;95;21663;-69
2022/03/21 11:36:58;;;;;;;19.77;4.95;;;;;;;16.37;49.13;101436.43;1508285;95;21134;-67
2022/03/21 11:39:26;;;;;;;17.15;4.75;;;;;;;16.19;49.53;101427.94;1507917;95;21076;-66
2022/03/21 11:42:10;;;;;;;15.45;4.22;;;;;;;16.13;50.82;101421.83;1528994;94;21470;-67
2022/03/21 11:44:38;;;;;;;18.75;4.22;;;;;;;16.20;50.89;101424.20;1518482;94;21586;-67
2022/03/21 11:47:26;;;;;;;9.45;3.55;;;;;;;16.26;51.66;101422.12;1518397;94;21136;-68
2022/03/21 11:49:53;;;;;;;14.23;4.47;;;;;;;16.25;51.54;101412.73;1517461;94;21094;-72
2022/03/21 11:52:21;;;;;;;15.20;4.05;;;;;;;16.30;52.24;101418.53;1524320;93;21621;-77